CheckWX is a tool to help pilots better visualize weather data.  It is not intended as a substitute for an official pre-flight weather briefing.

12:21:25 UTC

KTMK METAR
Tillamook Airport
Tillamook, Oregon, USA
Current

26 mins ago

KTMK 161155Z AUTO 00000KT 10SM SCT016 BKN021 OVC036 16/15 A3004 RMK AO2
Observed
Jul-16 @ 11:55 UTC
Visibility
10 SM
Flight Rules
MVFR
Cloud Levels
  • Scattered at 1,600' AGL
  • Broken at 2,100' AGL
  • Overcast at 3,600' AGL
Temperature
16°C / 61°F
Dewpoint
15°C / 59°F
Humidity
94%
Altimeter
30.04" Hg
Pressure
1017.32 hPa
Previous

46 mins ago

KTMK 161135Z AUTO 05003KT 5SM BR BKN019 OVC028 16/15 A3004 RMK AO2
Observed
Jul-16 @ 11:35 UTC
Wind
  • 050° at 3 KTS
Visibility
5 SM
Flight Rules
MVFR
Conditions
Mist
Cloud Levels
  • Broken at 1,900' AGL
  • Overcast at 2,800' AGL
Temperature
16°C / 61°F
Dewpoint
15°C / 59°F
Humidity
94%
Altimeter
30.04" Hg
Pressure
1017.32 hPa
Previous

1 hour ago

KTMK 161115Z AUTO 00000KT 4SM BR OVC017 16/15 A3004 RMK AO2
Observed
Jul-16 @ 11:15 UTC
Visibility
4 SM
Flight Rules
MVFR
Conditions
Mist
Cloud Levels
  • Overcast at 1,700' AGL
Temperature
16°C / 61°F
Dewpoint
15°C / 59°F
Humidity
94%
Altimeter
30.04" Hg
Pressure
1017.32 hPa